Time,TemperatureF,DewpointF,PressureIn,WindDirection,WindDirectionDegrees,WindSpeedMPH,WindSpeedGustMPH,Humidity,HourlyPrecipIn,Conditions,Clouds,dailyrainin,SoftwareType,DateUTC
2013-03-07 00:05:00,36.0,28.8,29.41,NW,315,4.0,13.0,75,0.00,,,0.00,Weather View 32 v70,2013-03-07 05:05:00,
2013-03-07 00:10:00,36.0,28.8,29.41,NW,315,2.0,13.0,75,0.00,,,0.00,Weather View 32 v70,2013-03-07 05:10:00,
2013-03-07 00:15:00,36.0,28.8,29.40,WNW,292,10.0,14.0,75,0.00,,,0.00,Weather View 32 v70,2013-03-07 05:15:00,
2013-03-07 00:20:00,37.0,29.5,29.40,NNW,337,6.0,14.0,74,0.00,,,0.00,Weather View 32 v70,2013-03-07 05:20:00,
2013-03-07 00:25:00,37.0,29.5,29.41,NNW,337,2.0,14.0,74,0.00,,,0.00,Weather View 32 v70,2013-03-07 05:25:00,
2013-03-07 00:30:00,36.0,28.5,29.40,NW,315,4.0,14.0,74,0.00,,,0.00,Weather View 32 v70,2013-03-07 05:30:00,
2013-03-07 00:35:00,36.0,28.8,29.40,NNW,337,5.0,14.0,75,0.00,,,0.00,Weather View 32 v70,2013-03-07 05:35:00,
2013-03-07 00:40:00,36.0,29.2,29.40,NW,315,7.0,14.0,76,0.00,,,0.00,Weather View 32 v70,2013-03-07 05:40:00,
2013-03-07 00:45:00,35.0,28.2,29.41,NNW,337,6.0,14.0,76,0.00,,,0.00,Weather View 32 v70,2013-03-07 05:45:00,
2013-03-07 00:50:00,35.0,28.5,29.41,NNW,337,4.0,14.0,77,0.00,,,0.00,Weather View 32 v70,2013-03-07 05:50:00,
2013-03-07 00:55:00,35.0,28.5,29.41,North,360,2.0,14.0,77,0.00,,,0.00,Weather View 32 v70,2013-03-07 05:55:00,
2013-03-07 01:00:00,34.0,27.9,29.41,NNE,22,4.0,14.0,78,0.00,,,0.00,Weather View 32 v70,2013-03-07 06:00:00,
2013-03-07 01:05:00,34.0,28.2,29.41,NNE,22,5.0,14.0,79,0.00,,,0.00,Weather View 32 v70,2013-03-07 06:05:00,
2013-03-07 01:10:00,34.0,28.5,29.41,NNE,22,2.0,14.0,80,0.00,,,0.00,Weather View 32 v70,2013-03-07 06:10:00,
2013-03-07 01:20:00,33.0,27.8,29.41,NNE,22,1.0,12.0,81,0.00,,,0.00,Weather View 32 v70,2013-03-07 06:20:00,
2013-03-07 01:25:00,33.0,28.1,29.41,NNE,22,0.0,9.0,82,0.00,,,0.00,Weather View 32 v70,2013-03-07 06:25:00,
2013-03-07 01:30:00,33.0,28.1,29.41,NNE,22,3.0,9.0,82,0.00,,,0.00,Weather View 32 v70,2013-03-07 06:30:00,
2013-03-07 01:40:00,32.0,27.7,29.41,NNE,22,1.0,9.0,84,0.00,,,0.00,Weather View 32 v70,2013-03-07 06:40:00,
2013-03-07 01:45:00,32.0,27.7,29.42,NNE,22,2.0,7.0,84,0.00,,,0.00,Weather View 32 v70,2013-03-07 06:45:00,
2013-03-07 01:50:00,32.0,28.0,29.41,NNE,22,3.0,6.0,85,0.00,,,0.00,Weather View 32 v70,2013-03-07 06:50:00,
2013-03-07 02:00:00,31.0,27.6,29.41,NNE,22,3.0,6.0,87,0.00,,,0.00,Weather View 32 v70,2013-03-07 07:00:00,
2013-03-07 02:05:00,31.0,27.6,29.41,North,360,2.0,6.0,87,0.00,,,0.00,Weather View 32 v70,2013-03-07 07:05:00,
2013-03-07 02:10:00,31.0,27.9,29.41,North,360,2.0,5.0,88,0.00,,,0.00,Weather View 32 v70,2013-03-07 07:10:00,
2013-03-07 02:15:00,31.0,27.9,29.40,North,360,0.0,4.0,88,0.00,,,0.00,Weather View 32 v70,2013-03-07 07:15:00,
2013-03-07 02:20:00,31.0,27.9,29.40,North,360,1.0,4.0,88,0.00,,,0.00,Weather View 32 v70,2013-03-07 07:20:00,
2013-03-07 02:25:00,31.0,28.1,29.40,North,360,1.0,4.0,89,0.00,,,0.00,Weather View 32 v70,2013-03-07 07:25:00,
2013-03-07 02:30:00,31.0,28.1,29.40,North,360,1.0,4.0,89,0.00,,,0.00,Weather View 32 v70,2013-03-07 07:30:00,
2013-03-07 02:35:00,31.0,28.1,29.40,North,360,2.0,4.0,89,0.00,,,0.00,Weather View 32 v70,2013-03-07 07:35:00,
2013-03-07 02:50:00,32.0,28.6,29.41,North,360,2.0,4.0,87,0.00,,,0.00,Weather View 32 v70,2013-03-07 07:50:00,
2013-03-07 02:55:00,32.0,28.6,29.41,North,360,3.0,4.0,87,0.00,,,0.00,Weather View 32 v70,2013-03-07 07:55:00,
2013-03-07 03:00:00,33.0,29.3,29.41,WSW,247,6.0,7.0,86,0.00,,,0.00,Weather View 32 v70,2013-03-07 08:00:00,
2013-03-07 03:05:00,34.0,29.4,29.41,WNW,292,2.0,7.0,83,0.00,,,0.00,Weather View 32 v70,2013-03-07 08:05:00,
2013-03-07 03:10:00,34.0,28.8,29.41,WNW,292,4.0,7.0,81,0.00,,,0.00,Weather View 32 v70,2013-03-07 08:10:00,
2013-03-07 03:15:00,35.0,29.1,29.42,NW,315,2.0,9.0,79,0.00,,,0.00,Weather View 32 v70,2013-03-07 08:15:00,
2013-03-07 03:20:00,35.0,28.8,29.41,WNW,292,6.0,9.0,78,0.00,,,0.00,Weather View 32 v70,2013-03-07 08:20:00,
2013-03-07 03:25:00,36.0,29.2,29.41,NW,315,2.0,9.0,76,0.00,,,0.00,Weather View 32 v70,2013-03-07 08:25:00,
2013-03-07 03:30:00,36.0,29.5,29.41,NW,315,4.0,9.0,77,0.00,,,0.00,Weather View 32 v70,2013-03-07 08:30:00,
2013-03-07 03:40:00,36.0,28.8,29.42,WSW,247,0.0,9.0,75,0.00,,,0.00,Weather View 32 v70,2013-03-07 08:40:00,
2013-03-07 03:50:00,36.0,28.8,29.42,WSW,247,1.0,9.0,75,0.00,,,0.00,Weather View 32 v70,2013-03-07 08:50:00,
2013-03-07 03:55:00,36.0,28.2,29.42,SW,225,2.0,9.0,73,0.00,,,0.00,Weather View 32 v70,2013-03-07 08:55:00,
2013-03-07 04:10:00,37.0,26.7,29.43,WNW,292,9.0,14.0,66,0.00,,,0.00,Weather View 32 v70,2013-03-07 09:10:00,
2013-03-07 04:15:00,37.0,26.7,29.43,NNW,337,4.0,16.0,66,0.00,,,0.00,Weather View 32 v70,2013-03-07 09:15:00,
2013-03-07 04:20:00,37.0,26.7,29.42,NW,315,13.0,16.0,66,0.00,,,0.00,Weather View 32 v70,2013-03-07 09:20:00,
2013-03-07 04:25:00,37.0,26.7,29.43,NW,315,6.0,16.0,66,0.00,,,0.00,Weather View 32 v70,2013-03-07 09:25:00,
2013-03-07 04:30:00,37.0,26.3,29.43,WNW,292,7.0,16.0,65,0.00,,,0.00,Weather View 32 v70,2013-03-07 09:30:00,
2013-03-07 04:35:00,37.0,26.7,29.43,North,360,6.0,16.0,66,0.00,,,0.00,Weather View 32 v70,2013-03-07 09:35:00,
2013-03-07 04:40:00,37.0,26.7,29.43,NW,315,6.0,16.0,66,0.00,,,0.00,Weather View 32 v70,2013-03-07 09:40:00,
2013-03-07 04:45:00,37.0,26.3,29.43,NW,315,6.0,16.0,65,0.00,,,0.00,Weather View 32 v70,2013-03-07 09:45:00,
2013-03-07 04:50:00,37.0,26.7,29.43,NNW,337,9.0,16.0,66,0.00,,,0.00,Weather View 32 v70,2013-03-07 09:50:00,
2013-03-07 04:55:00,37.0,26.7,29.43,WNW,292,7.0,16.0,66,0.00,,,0.00,Weather View 32 v70,2013-03-07 09:55:00,
2013-03-07 05:00:00,37.0,27.1,29.44,North,360,2.0,16.0,67,0.00,,,0.00,Weather View 32 v70,2013-03-07 10:00:00,
2013-03-07 05:05:00,36.0,26.1,29.44,WNW,292,9.0,16.0,67,0.00,,,0.00,Weather View 32 v70,2013-03-07 10:05:00,
2013-03-07 05:15:00,37.0,26.3,29.44,NW,315,8.0,17.0,65,0.00,,,0.00,Weather View 32 v70,2013-03-07 10:15:00,
2013-03-07 05:20:00,37.0,26.3,29.44,NW,315,4.0,17.0,65,0.00,,,0.00,Weather View 32 v70,2013-03-07 10:20:00,
2013-03-07 05:25:00,37.0,26.3,29.44,North,360,7.0,17.0,65,0.00,,,0.00,Weather View 32 v70,2013-03-07 10:25:00,
2013-03-07 05:34:00,37.0,26.7,29.44,NNW,337,7.0,17.0,66,0.00,,,0.00,Weather View 32 v70,2013-03-07 10:34:00,
2013-03-07 05:40:00,37.0,26.7,29.44,NW,315,6.0,17.0,66,0.00,,,0.00,Weather View 32 v70,2013-03-07 10:40:00,
2013-03-07 05:45:00,37.0,26.7,29.44,NNW,337,5.0,17.0,66,0.00,,,0.00,Weather View 32 v70,2013-03-07 10:45:00,
2013-03-07 05:50:00,36.0,25.7,29.44,WNW,292,5.0,17.0,66,0.00,,,0.00,Weather View 32 v70,2013-03-07 10:50:00,
2013-03-07 05:55:00,36.0,25.7,29.44,NW,315,7.0,17.0,66,0.00,,,0.00,Weather View 32 v70,2013-03-07 10:55:00,
2013-03-07 06:00:00,37.0,26.7,29.44,WNW,292,6.0,17.0,66,0.00,,,0.00,Weather View 32 v70,2013-03-07 11:00:00,
2013-03-07 06:10:00,36.0,25.7,29.44,West,270,6.0,14.0,66,0.00,,,0.00,Weather View 32 v70,2013-03-07 11:10:00,
2013-03-07 06:20:00,36.0,25.4,29.44,WNW,292,6.0,16.0,65,0.00,,,0.00,Weather View 32 v70,2013-03-07 11:20:00,
2013-03-07 06:25:00,36.0,25.4,29.44,NNW,337,2.0,16.0,65,0.00,,,0.00,Weather View 32 v70,2013-03-07 11:25:00,
2013-03-07 06:30:00,36.0,25.7,29.44,NW,315,6.0,16.0,66,0.00,,,0.00,Weather View 32 v70,2013-03-07 11:30:00,
2013-03-07 06:35:00,35.0,24.8,29.45,WSW,247,6.0,16.0,66,0.00,,,0.00,Weather View 32 v70,2013-03-07 11:35:00,
2013-03-07 06:45:00,35.0,24.8,29.44,NW,315,4.0,16.0,66,0.00,,,0.00,Weather View 32 v70,2013-03-07 11:45:00,
2013-03-07 06:50:00,35.0,24.4,29.44,WSW,247,1.0,16.0,65,0.00,,,0.00,Weather View 32 v70,2013-03-07 11:50:00,
2013-03-07 07:00:00,35.0,24.8,29.45,North,360,1.0,16.0,66,0.00,,,0.00,Weather View 32 v70,2013-03-07 12:00:00,
2013-03-07 07:10:00,35.0,24.4,29.45,WNW,292,0.0,16.0,65,0.00,,,0.00,Weather View 32 v70,2013-03-07 12:10:00,
2013-03-07 07:15:00,35.0,24.4,29.46,WNW,292,1.0,16.0,65,0.00,,,0.00,Weather View 32 v70,2013-03-07 12:15:00,
2013-03-07 07:20:00,35.0,24.4,29.46,West,270,0.0,16.0,65,0.00,,,0.00,Weather View 32 v70,2013-03-07 12:20:00,
2013-03-07 07:25:00,35.0,24.0,29.46,WNW,292,9.0,13.0,64,0.00,,,0.00,Weather View 32 v70,2013-03-07 12:25:00,
2013-03-07 07:30:00,35.0,24.0,29.46,West,270,4.0,13.0,64,0.00,,,0.00,Weather View 32 v70,2013-03-07 12:30:00,
2013-03-07 07:35:00,36.0,24.6,29.46,North,360,5.0,13.0,63,0.00,,,0.00,Weather View 32 v70,2013-03-07 12:35:00,
2013-03-07 07:45:00,37.0,24.8,29.46,North,360,1.0,13.0,61,0.00,,,0.00,Weather View 32 v70,2013-03-07 12:45:00,
2013-03-07 07:55:00,37.0,24.8,29.47,WNW,292,6.0,13.0,61,0.00,,,0.00,Weather View 32 v70,2013-03-07 12:55:00,
2013-03-07 08:00:00,37.0,24.8,29.48,NNW,337,1.0,13.0,61,0.00,,,0.00,Weather View 32 v70,2013-03-07 13:00:00,
2013-03-07 08:10:00,37.0,24.0,29.48,WNW,292,6.0,13.0,59,0.00,,,0.00,Weather View 32 v70,2013-03-07 13:10:00,
2013-03-07 08:15:00,38.0,24.9,29.48,WNW,292,10.0,15.0,59,0.00,,,0.00,Weather View 32 v70,2013-03-07 13:15:00,
2013-03-07 08:20:00,38.0,24.1,29.48,NNW,337,6.0,16.0,57,0.00,,,0.00,Weather View 32 v70,2013-03-07 13:20:00,
2013-03-07 08:30:00,38.0,24.1,29.49,NW,315,10.0,16.0,57,0.00,,,0.00,Weather View 32 v70,2013-03-07 13:30:00,
2013-03-07 08:35:00,39.0,25.0,29.48,NNW,337,9.0,16.0,57,0.00,,,0.00,Weather View 32 v70,2013-03-07 13:35:00,
2013-03-07 08:45:00,39.0,24.6,29.49,WNW,292,7.0,16.0,56,0.00,,,0.00,Weather View 32 v70,2013-03-07 13:45:00,
2013-03-07 08:50:00,39.0,24.6,29.49,WNW,292,4.0,16.0,56,0.00,,,0.00,Weather View 32 v70,2013-03-07 13:50:00,
2013-03-07 08:55:00,39.0,24.6,29.49,WNW,292,5.0,17.0,56,0.00,,,0.00,Weather View 32 v70,2013-03-07 13:55:00,
2013-03-07 09:00:00,40.0,24.7,29.50,NW,315,3.0,17.0,54,0.00,,,0.00,Weather View 32 v70,2013-03-07 14:00:00,
2013-03-07 09:10:00,40.0,23.8,29.50,NNW,337,6.0,17.0,52,0.00,,,0.00,Weather View 32 v70,2013-03-07 14:10:00,
2013-03-07 09:15:00,40.0,23.3,29.50,WNW,292,13.0,22.0,51,0.00,,,0.00,Weather View 32 v70,2013-03-07 14:15:00,
2013-03-07 09:25:00,41.0,25.2,29.50,NW,315,6.0,22.0,53,0.00,,,0.00,Weather View 32 v70,2013-03-07 14:25:00,
2013-03-07 09:30:00,40.0,24.2,29.51,NW,315,15.0,22.0,53,0.00,,,0.00,Weather View 32 v70,2013-03-07 14:30:00,
2013-03-07 09:35:00,41.0,25.2,29.51,NW,315,9.0,22.0,53,0.00,,,0.00,Weather View 32 v70,2013-03-07 14:35:00,
2013-03-07 09:40:00,41.0,24.2,29.51,North,360,0.0,22.0,51,0.00,,,0.00,Weather View 32 v70,2013-03-07 14:40:00,
2013-03-07 09:45:00,41.0,24.7,29.51,NW,315,6.0,22.0,52,0.00,,,0.00,Weather View 32 v70,2013-03-07 14:45:00,
2013-03-07 09:55:00,42.0,25.2,29.51,West,270,7.0,22.0,51,0.00,,,0.00,Weather View 32 v70,2013-03-07 14:55:00,
2013-03-07 10:00:00,42.0,25.2,29.51,NW,315,9.0,22.0,51,0.00,,,0.00,Weather View 32 v70,2013-03-07 15:00:00,
2013-03-07 10:05:00,42.0,24.7,29.51,WNW,292,8.0,22.0,50,0.00,,,0.00,Weather View 32 v70,2013-03-07 15:05:00,
2013-03-07 10:10:00,42.0,25.2,29.51,NW,315,10.0,22.0,51,0.00,,,0.00,Weather View 32 v70,2013-03-07 15:10:00,
2013-03-07 10:15:00,42.0,25.2,29.52,NNW,337,6.0,21.0,51,0.00,,,0.00,Weather View 32 v70,2013-03-07 15:15:00,
2013-03-07 10:20:00,43.0,25.6,29.52,NNW,337,12.0,21.0,50,0.00,,,0.00,Weather View 32 v70,2013-03-07 15:20:00,
2013-03-07 10:25:00,42.0,24.2,29.52,NNW,337,9.0,21.0,49,0.00,,,0.00,Weather View 32 v70,2013-03-07 15:25:00,
2013-03-07 10:35:00,43.0,25.1,29.51,North,360,7.0,23.0,49,0.00,,,0.00,Weather View 32 v70,2013-03-07 15:35:00,
2013-03-07 10:45:00,43.0,24.6,29.51,NW,315,6.0,23.0,48,0.00,,,0.00,Weather View 32 v70,2013-03-07 15:45:00,
2013-03-07 11:00:00,43.0,25.1,29.51,West,270,6.0,23.0,49,0.00,,,0.00,Weather View 32 v70,2013-03-07 16:00:00,
2013-03-07 11:05:00,43.0,25.1,29.51,NNW,337,8.0,23.0,49,0.00,,,0.00,Weather View 32 v70,2013-03-07 16:05:00,
2013-03-07 11:10:00,43.0,24.1,29.51,NNW,337,6.0,23.0,47,0.00,,,0.00,Weather View 32 v70,2013-03-07 16:10:00,
2013-03-07 11:20:00,44.0,26.0,29.52,NNW,337,15.0,23.0,49,0.00,,,0.00,Weather View 32 v70,2013-03-07 16:20:00,
2013-03-07 11:30:00,44.0,25.5,29.52,NNW,337,8.0,23.0,48,0.00,,,0.00,Weather View 32 v70,2013-03-07 16:30:00,
2013-03-07 11:35:00,43.0,24.1,29.52,West,270,8.0,23.0,47,0.00,,,0.00,Weather View 32 v70,2013-03-07 16:35:00,
2013-03-07 11:45:00,45.0,24.9,29.51,WNW,292,10.0,21.0,45,0.00,,,0.00,Weather View 32 v70,2013-03-07 16:45:00,
2013-03-07 11:55:00,44.0,25.0,29.51,West,270,9.0,21.0,47,0.00,,,0.00,Weather View 32 v70,2013-03-07 16:55:00,
2013-03-07 12:00:00,44.0,25.5,29.51,NNW,337,10.0,21.0,48,0.00,,,0.00,Weather View 32 v70,2013-03-07 17:00:00,
2013-03-07 12:05:00,44.0,25.5,29.52,West,270,8.0,21.0,48,0.00,,,0.00,Weather View 32 v70,2013-03-07 17:05:00,
2013-03-07 12:10:00,44.0,25.0,29.52,West,270,10.0,20.0,47,0.00,,,0.00,Weather View 32 v70,2013-03-07 17:10:00,
2013-03-07 12:20:00,44.0,26.0,29.52,WNW,292,6.0,21.0,49,0.00,,,0.00,Weather View 32 v70,2013-03-07 17:20:00,
2013-03-07 12:30:00,44.0,25.0,29.51,West,270,7.0,21.0,47,0.00,,,0.00,Weather View 32 v70,2013-03-07 17:30:00,
2013-03-07 12:38:00,44.0,24.5,29.51,WNW,292,10.0,21.0,46,0.00,,,0.00,Weather View 32 v70,2013-03-07 17:38:00,
2013-03-07 12:45:00,44.0,25.0,29.51,West,270,8.0,23.0,47,0.00,,,0.00,Weather View 32 v70,2013-03-07 17:45:00,
2013-03-07 12:50:00,44.0,25.0,29.51,East,90,2.0,23.0,47,0.00,,,0.00,Weather View 32 v70,2013-03-07 17:50:00,
2013-03-07 12:55:00,44.0,25.0,29.51,WNW,292,10.0,23.0,47,0.00,,,0.00,Weather View 32 v70,2013-03-07 17:55:00,
2013-03-07 13:05:00,44.0,25.5,29.50,WSW,247,4.0,23.0,48,0.00,,,0.00,Weather View 32 v70,2013-03-07 18:05:00,
2013-03-07 13:15:00,45.0,26.0,29.50,WNW,292,7.0,23.0,47,0.00,,,0.00,Weather View 32 v70,2013-03-07 18:15:00,
2013-03-07 13:20:00,44.0,25.5,29.50,NW,315,6.0,23.0,48,0.00,,,0.00,Weather View 32 v70,2013-03-07 18:20:00,
2013-03-07 13:25:00,44.0,25.5,29.50,West,270,7.0,23.0,48,0.00,,,0.00,Weather View 32 v70,2013-03-07 18:25:00,
2013-03-07 13:30:00,44.0,25.5,29.50,NW,315,6.0,23.0,48,0.00,,,0.00,Weather View 32 v70,2013-03-07 18:30:00,
2013-03-07 13:35:00,43.0,25.1,29.50,WNW,292,9.0,23.0,49,0.00,,,0.00,Weather View 32 v70,2013-03-07 18:35:00,
2013-03-07 13:40:00,44.0,26.5,29.49,WNW,292,17.0,23.0,50,0.00,,,0.00,Weather View 32 v70,2013-03-07 18:40:00,
2013-03-07 13:45:00,43.0,25.1,29.50,West,270,10.0,22.0,49,0.00,,,0.00,Weather View 32 v70,2013-03-07 18:45:00,
2013-03-07 13:55:00,45.0,26.5,29.49,WNW,292,10.0,22.0,48,0.00,,,0.00,Weather View 32 v70,2013-03-07 18:55:00,
2013-03-07 14:05:00,47.0,27.3,29.49,West,270,9.0,22.0,46,0.00,,,0.00,Weather View 32 v70,2013-03-07 19:05:00,
2013-03-07 14:10:00,46.0,25.8,29.49,West,270,15.0,22.0,45,0.00,,,0.00,Weather View 32 v70,2013-03-07 19:10:00,
2013-03-07 14:15:00,45.0,24.9,29.49,West,270,10.0,22.0,45,0.00,,,0.00,Weather View 32 v70,2013-03-07 19:15:00,
2013-03-07 14:20:00,45.0,26.0,29.49,West,270,9.0,22.0,47,0.00,,,0.00,Weather View 32 v70,2013-03-07 19:20:00,
2013-03-07 14:25:00,45.0,26.0,29.48,West,270,15.0,22.0,47,0.00,,,0.00,Weather View 32 v70,2013-03-07 19:25:00,
2013-03-07 14:30:00,45.0,26.0,29.48,West,270,15.0,23.0,47,0.00,,,0.00,Weather View 32 v70,2013-03-07 19:30:00,
2013-03-07 14:39:00,46.0,26.9,29.49,SW,225,7.0,23.0,47,0.00,,,0.00,Weather View 32 v70,2013-03-07 19:39:00,
2013-03-07 14:45:00,45.0,26.0,29.49,WNW,292,9.0,23.0,47,0.00,,,0.00,Weather View 32 v70,2013-03-07 19:45:00,
2013-03-07 14:55:00,44.0,25.5,29.49,West,270,6.0,25.0,48,0.00,,,0.00,Weather View 32 v70,2013-03-07 19:55:00,
2013-03-07 15:00:00,45.0,26.5,29.50,West,270,10.0,25.0,48,0.00,,,0.00,Weather View 32 v70,2013-03-07 20:00:00,
2013-03-07 15:05:00,45.0,26.5,29.50,NW,315,7.0,25.0,48,0.00,,,0.00,Weather View 32 v70,2013-03-07 20:05:00,
2013-03-07 15:10:00,45.0,26.0,29.49,West,270,11.0,25.0,47,0.00,,,0.00,Weather View 32 v70,2013-03-07 20:10:00,
2013-03-07 15:15:00,45.0,26.5,29.50,WNW,292,9.0,25.0,48,0.00,,,0.00,Weather View 32 v70,2013-03-07 20:15:00,
2013-03-07 15:25:00,46.0,27.4,29.49,West,270,5.0,28.0,48,0.00,,,0.00,Weather View 32 v70,2013-03-07 20:25:00,
2013-03-07 15:30:00,45.0,27.0,29.50,West,270,10.0,28.0,49,0.00,,,0.00,Weather View 32 v70,2013-03-07 20:30:00,
2013-03-07 15:40:00,45.0,26.5,29.49,NNW,337,9.0,28.0,48,0.00,,,0.00,Weather View 32 v70,2013-03-07 20:40:00,
2013-03-07 15:50:00,46.0,28.4,29.50,NW,315,12.0,28.0,50,0.00,,,0.00,Weather View 32 v70,2013-03-07 20:50:00,
2013-03-07 16:05:00,45.0,27.5,29.50,East,90,2.0,28.0,50,0.00,,,0.00,Weather View 32 v70,2013-03-07 21:05:00,
2013-03-07 16:10:00,44.0,27.9,29.50,West,270,14.0,28.0,53,0.00,,,0.00,Weather View 32 v70,2013-03-07 21:10:00,
2013-03-07 16:15:00,44.0,27.9,29.50,WNW,292,15.0,28.0,53,0.00,,,0.00,Weather View 32 v70,2013-03-07 21:15:00,
2013-03-07 16:20:00,44.0,27.5,29.50,NW,315,12.0,28.0,52,0.00,,,0.00,Weather View 32 v70,2013-03-07 21:20:00,
2013-03-07 16:25:00,44.0,27.5,29.50,West,270,2.0,28.0,52,0.00,,,0.00,Weather View 32 v70,2013-03-07 21:25:00,
2013-03-07 16:35:00,44.0,27.9,29.50,WNW,292,2.0,25.0,53,0.00,,,0.00,Weather View 32 v70,2013-03-07 21:35:00,
2013-03-07 16:40:00,44.0,27.9,29.51,WNW,292,5.0,25.0,53,0.00,,,0.00,Weather View 32 v70,2013-03-07 21:40:00,
2013-03-07 16:50:00,44.0,27.9,29.50,West,270,9.0,20.0,53,0.00,,,0.00,Weather View 32 v70,2013-03-07 21:50:00,
2013-03-07 17:00:00,44.0,29.3,29.51,WNW,292,8.0,20.0,56,0.00,,,0.00,Weather View 32 v70,2013-03-07 22:00:00,
2013-03-07 17:05:00,43.0,28.8,29.51,NNW,337,6.0,20.0,57,0.00,,,0.00,Weather View 32 v70,2013-03-07 22:05:00,
2013-03-07 17:10:00,43.0,29.6,29.51,North,360,8.0,20.0,59,0.00,,,0.00,Weather View 32 v70,2013-03-07 22:10:00,
2013-03-07 17:15:00,43.0,29.6,29.51,West,270,7.0,20.0,59,0.00,,,0.00,Weather View 32 v70,2013-03-07 22:15:00,
2013-03-07 17:25:00,42.0,28.7,29.51,West,270,7.0,20.0,59,0.00,,,0.00,Weather View 32 v70,2013-03-07 22:25:00,
2013-03-07 17:30:00,42.0,28.7,29.51,WNW,292,4.0,20.0,59,0.00,,,0.00,Weather View 32 v70,2013-03-07 22:30:00,
2013-03-07 17:40:00,42.0,29.1,29.52,North,360,9.0,20.0,60,0.00,,,0.00,Weather View 32 v70,2013-03-07 22:40:00,
2013-03-07 17:50:00,42.0,29.5,29.52,West,270,7.0,20.0,61,0.00,,,0.00,Weather View 32 v70,2013-03-07 22:50:00,
2013-03-07 17:55:00,42.0,29.5,29.53,WNW,292,10.0,22.0,61,0.00,,,0.00,Weather View 32 v70,2013-03-07 22:55:00,
2013-03-07 18:00:00,41.0,29.4,29.53,West,270,10.0,22.0,63,0.00,,,0.00,Weather View 32 v70,2013-03-07 23:00:00,
2013-03-07 18:10:00,41.0,29.7,29.53,West,270,10.0,22.0,64,0.00,,,0.00,Weather View 32 v70,2013-03-07 23:10:00,
2013-03-07 18:15:00,41.0,30.1,29.53,NW,315,2.0,22.0,65,0.00,,,0.00,Weather View 32 v70,2013-03-07 23:15:00,
2013-03-07 18:20:00,41.0,30.1,29.53,West,270,4.0,22.0,65,0.00,,,0.00,Weather View 32 v70,2013-03-07 23:20:00,
2013-03-07 18:30:00,40.0,29.5,29.53,West,270,6.0,22.0,66,0.00,,,0.00,Weather View 32 v70,2013-03-07 23:30:00,
2013-03-07 18:35:00,40.0,29.5,29.53,NNW,337,5.0,22.0,66,0.00,,,0.00,Weather View 32 v70,2013-03-07 23:35:00,
2013-03-07 18:40:00,40.0,29.2,29.53,NW,315,0.0,22.0,65,0.00,,,0.00,Weather View 32 v70,2013-03-07 23:40:00,
2013-03-07 18:45:00,40.0,29.2,29.53,WSW,247,3.0,22.0,65,0.00,,,0.00,Weather View 32 v70,2013-03-07 23:45:00,
2013-03-07 18:50:00,40.0,29.2,29.53,West,270,5.0,22.0,65,0.00,,,0.00,Weather View 32 v70,2013-03-07 23:50:00,
2013-03-07 18:55:00,40.0,29.2,29.53,WSW,247,6.0,20.0,65,0.00,,,0.00,Weather View 32 v70,2013-03-07 23:55:00,
2013-03-07 19:00:00,40.0,28.8,29.54,WNW,292,2.0,18.0,64,0.00,,,0.00,Weather View 32 v70,2013-03-08 00:00:00,
2013-03-07 19:10:00,40.0,28.8,29.54,WNW,292,4.0,18.0,64,0.00,,,0.00,Weather View 32 v70,2013-03-08 00:10:00,
2013-03-07 19:15:00,40.0,28.8,29.54,WNW,292,2.0,14.0,64,0.00,,,0.00,Weather View 32 v70,2013-03-08 00:15:00,
2013-03-07 19:20:00,40.0,28.8,29.54,West,270,4.0,14.0,64,0.00,,,0.00,Weather View 32 v70,2013-03-08 00:20:00,
2013-03-07 19:25:00,40.0,28.4,29.54,WNW,292,6.0,14.0,63,0.00,,,0.00,Weather View 32 v70,2013-03-08 00:25:00,
2013-03-07 19:30:00,40.0,28.4,29.54,West,270,8.0,14.0,63,0.00,,,0.00,Weather View 32 v70,2013-03-08 00:30:00,
2013-03-07 19:35:00,40.0,28.0,29.54,SW,225,3.0,14.0,62,0.00,,,0.00,Weather View 32 v70,2013-03-08 00:35:00,
2013-03-07 19:40:00,40.0,27.6,29.54,WSW,247,7.0,14.0,61,0.00,,,0.00,Weather View 32 v70,2013-03-08 00:40:00,
2013-03-07 19:45:00,40.0,27.6,29.54,West,270,9.0,15.0,61,0.00,,,0.00,Weather View 32 v70,2013-03-08 00:45:00,
2013-03-07 19:50:00,40.0,27.6,29.54,WSW,247,7.0,16.0,61,0.00,,,0.00,Weather View 32 v70,2013-03-08 00:50:00,
2013-03-07 19:55:00,40.0,27.6,29.54,West,270,13.0,16.0,61,0.00,,,0.00,Weather View 32 v70,2013-03-08 00:55:00,
2013-03-07 20:05:00,40.0,27.6,29.54,West,270,16.0,18.0,61,0.00,,,0.00,Weather View 32 v70,2013-03-08 01:05:00,
2013-03-07 20:10:00,40.0,27.6,29.54,NNW,337,4.0,19.0,61,0.00,,,0.00,Weather View 32 v70,2013-03-08 01:10:00,
2013-03-07 20:15:00,40.0,27.6,29.54,West,270,9.0,19.0,61,0.00,,,0.00,Weather View 32 v70,2013-03-08 01:15:00,
2013-03-07 20:20:00,40.0,28.0,29.54,West,270,12.0,19.0,62,0.00,,,0.00,Weather View 32 v70,2013-03-08 01:20:00,
2013-03-07 20:25:00,39.0,27.5,29.54,WSW,247,8.0,19.0,63,0.00,,,0.00,Weather View 32 v70,2013-03-08 01:25:00,
2013-03-07 20:30:00,39.0,27.5,29.54,WNW,292,9.0,19.0,63,0.00,,,0.00,Weather View 32 v70,2013-03-08 01:30:00,
2013-03-07 20:35:00,39.0,27.5,29.54,WSW,247,8.0,19.0,63,0.00,,,0.00,Weather View 32 v70,2013-03-08 01:35:00,
2013-03-07 20:40:00,39.0,27.5,29.54,WSW,247,6.0,19.0,63,0.00,,,0.00,Weather View 32 v70,2013-03-08 01:40:00,
2013-03-07 20:50:00,39.0,27.8,29.54,WSW,247,7.0,19.0,64,0.00,,,0.00,Weather View 32 v70,2013-03-08 01:50:00,
2013-03-07 21:00:00,39.0,27.8,29.54,West,270,11.0,19.0,64,0.00,,,0.00,Weather View 32 v70,2013-03-08 02:00:00,
2013-03-07 21:05:00,39.0,27.8,29.54,West,270,13.0,19.0,64,0.00,,,0.00,Weather View 32 v70,2013-03-08 02:05:00,
2013-03-07 21:10:00,39.0,27.8,29.55,West,270,5.0,19.0,64,0.00,,,0.00,Weather View 32 v70,2013-03-08 02:10:00,
2013-03-07 21:15:00,39.0,27.8,29.55,SW,225,6.0,19.0,64,0.00,,,0.00,Weather View 32 v70,2013-03-08 02:15:00,
2013-03-07 21:20:00,39.0,27.8,29.54,WNW,292,5.0,17.0,64,0.00,,,0.00,Weather View 32 v70,2013-03-08 02:20:00,
2013-03-07 21:25:00,39.0,27.8,29.55,WNW,292,9.0,17.0,64,0.00,,,0.00,Weather View 32 v70,2013-03-08 02:25:00,
2013-03-07 21:30:00,38.0,27.3,29.54,WSW,247,10.0,17.0,65,0.00,,,0.00,Weather View 32 v70,2013-03-08 02:30:00,
2013-03-07 21:35:00,38.0,27.3,29.54,West,270,7.0,17.0,65,0.00,,,0.00,Weather View 32 v70,2013-03-08 02:35:00,
2013-03-07 21:40:00,38.0,27.3,29.55,West,270,6.0,17.0,65,0.00,,,0.00,Weather View 32 v70,2013-03-08 02:40:00,
2013-03-07 21:45:00,38.0,27.3,29.54,West,270,7.0,17.0,65,0.00,,,0.00,Weather View 32 v70,2013-03-08 02:45:00,
2013-03-07 21:55:00,38.0,27.6,29.55,WSW,247,6.0,17.0,66,0.00,,,0.00,Weather View 32 v70,2013-03-08 02:55:00,
2013-03-07 22:00:00,38.0,27.6,29.54,West,270,6.0,15.0,66,0.00,,,0.00,Weather View 32 v70,2013-03-08 03:00:00,
2013-03-07 22:05:00,37.0,27.1,29.54,WSW,247,6.0,15.0,67,0.00,,,0.00,Weather View 32 v70,2013-03-08 03:05:00,
2013-03-07 22:10:00,37.0,27.1,29.54,WSW,247,3.0,15.0,67,0.00,,,0.00,Weather View 32 v70,2013-03-08 03:10:00,
2013-03-07 22:15:00,37.0,27.4,29.54,West,270,2.0,15.0,68,0.00,,,0.00,Weather View 32 v70,2013-03-08 03:15:00,
2013-03-07 22:20:00,37.0,27.4,29.54,West,270,6.0,15.0,68,0.00,,,0.00,Weather View 32 v70,2013-03-08 03:20:00,
2013-03-07 22:25:00,37.0,27.4,29.54,West,270,2.0,15.0,68,0.00,,,0.00,Weather View 32 v70,2013-03-08 03:25:00,
2013-03-07 22:30:00,37.0,27.1,29.54,West,270,12.0,15.0,67,0.00,,,0.00,Weather View 32 v70,2013-03-08 03:30:00,
2013-03-07 22:35:00,37.0,27.1,29.54,WNW,292,6.0,16.0,67,0.00,,,0.00,Weather View 32 v70,2013-03-08 03:35:00,
2013-03-07 22:43:00,37.0,27.1,29.54,WSW,247,4.0,16.0,67,0.00,,,0.00,Weather View 32 v70,2013-03-08 03:43:00,
2013-03-07 22:50:00,37.0,27.1,29.54,WNW,292,7.0,16.0,67,0.00,,,0.00,Weather View 32 v70,2013-03-08 03:50:00,
2013-03-07 22:55:00,37.0,27.1,29.54,WSW,247,6.0,16.0,67,0.00,,,0.00,Weather View 32 v70,2013-03-08 03:55:00,
2013-03-07 23:00:00,36.0,26.1,29.54,NW,315,5.0,16.0,67,0.00,,,0.00,Weather View 32 v70,2013-03-08 04:00:00,
2013-03-07 23:05:00,36.0,26.5,29.54,West,270,1.0,16.0,68,0.00,,,0.00,Weather View 32 v70,2013-03-08 04:05:00,
2013-03-07 23:10:00,36.0,26.5,29.54,NW,315,0.0,16.0,68,0.00,,,0.00,Weather View 32 v70,2013-03-08 04:10:00,
2013-03-07 23:15:00,36.0,26.8,29.54,West,270,5.0,16.0,69,0.00,,,0.00,Weather View 32 v70,2013-03-08 04:15:00,
2013-03-07 23:20:00,36.0,26.5,29.54,WNW,292,3.0,16.0,68,0.00,,,0.00,Weather View 32 v70,2013-03-08 04:20:00,
2013-03-07 23:25:00,36.0,26.1,29.54,West,270,7.0,16.0,67,0.00,,,0.00,Weather View 32 v70,2013-03-08 04:25:00,
2013-03-07 23:30:00,36.0,26.1,29.53,WSW,247,2.0,16.0,67,0.00,,,0.00,Weather View 32 v70,2013-03-08 04:30:00,
2013-03-07 23:40:00,36.0,26.1,29.54,West,270,5.0,12.0,67,0.00,,,0.00,Weather View 32 v70,2013-03-08 04:40:00,
2013-03-07 23:45:00,36.0,26.1,29.54,West,270,10.0,12.0,67,0.00,,,0.00,Weather View 32 v70,2013-03-08 04:45:00,
2013-03-07 23:50:00,36.0,26.1,29.53,WSW,247,9.0,15.0,67,0.00,,,0.00,Weather View 32 v70,2013-03-08 04:50:00,